sensor_id;sensor_type;location;lat;lon;timestamp;pressure;altitude;pressure_sealevel;temperature;humidity
65800;BME280;52544;48.116;11.660;2022-11-15T00:00:43;95607.25;;;4.38;100.00
65800;BME280;52544;48.116;11.660;2022-11-15T00:03:08;95605.53;;;4.37;100.00
65800;BME280;52544;48.116;11.660;2022-11-15T00:05:35;95603.13;;;4.34;100.00
65800;BME280;52544;48.116;11.660;2022-11-15T00:08:01;95596.41;;;4.30;100.00
65800;BME280;52544;48.116;11.660;2022-11-15T00:10:26;95600.78;;;4.29;100.00
65800;BME280;52544;48.116;11.660;2022-11-15T00:12:52;95599.53;;;4.20;100.00
65800;BME280;52544;48.116;11.660;2022-11-15T00:15:17;95588.59;;;4.14;100.00
65800;BME280;52544;48.116;11.660;2022-11-15T00:17:43;95594.66;;;4.00;100.00
65800;BME280;52544;48.116;11.660;2022-11-15T00:20:09;95592.41;;;3.94;100.00
65800;BME280;52544;48.116;11.660;2022-11-15T00:22:34;95589.97;;;3.91;100.00
65800;BME280;52544;48.116;11.660;2022-11-15T00:24:59;95584.75;;;3.91;100.00
65800;BME280;52544;48.116;11.660;2022-11-15T00:27:25;95583.13;;;3.88;100.00
65800;BME280;52544;48.116;11.660;2022-11-15T00:29:50;95586.38;;;3.78;100.00
65800;BME280;52544;48.116;11.660;2022-11-15T00:32:16;95585.06;;;3.70;100.00
65800;BME280;52544;48.116;11.660;2022-11-15T00:34:41;95576.66;;;3.65;100.00
65800;BME280;52544;48.116;11.660;2022-11-15T00:37:06;95588.66;;;3.54;100.00
65800;BME280;52544;48.116;11.660;2022-11-15T00:39:32;95580.75;;;3.39;100.00
65800;BME280;52544;48.116;11.660;2022-11-15T00:41:57;95582.47;;;3.24;100.00
65800;BME280;52544;48.116;11.660;2022-11-15T00:44:23;95581.13;;;3.17;100.00
65800;BME280;52544;48.116;11.660;2022-11-15T00:46:48;95585.09;;;3.24;100.00
65800;BME280;52544;48.116;11.660;2022-11-15T00:49:13;95579.59;;;3.29;100.00
65800;BME280;52544;48.116;11.660;2022-11-15T00:51:39;95583.97;;;3.29;100.00
65800;BME280;52544;48.116;11.660;2022-11-15T00:54:04;95576.97;;;3.29;100.00
65800;BME280;52544;48.116;11.660;2022-11-15T00:56:29;95578.75;;;3.29;100.00
65800;BME280;52544;48.116;11.660;2022-11-15T00:58:55;95571.84;;;3.28;100.00
65800;BME280;52544;48.116;11.660;2022-11-15T01:01:20;95578.19;;;3.23;100.00
65800;BME280;52544;48.116;11.660;2022-11-15T01:03:45;95575.16;;;3.15;100.00
65800;BME280;52544;48.116;11.660;2022-11-15T01:06:11;95571.59;;;3.16;100.00
65800;BME280;52544;48.116;11.660;2022-11-15T01:08:39;95566.38;;;3.16;100.00
65800;BME280;52544;48.116;11.660;2022-11-15T01:11:08;95567.47;;;3.12;100.00
65800;BME280;52544;48.116;11.660;2022-11-15T01:13:35;95564.09;;;3.10;100.00
65800;BME280;52544;48.116;11.660;2022-11-15T01:16:13;95562.59;;;3.06;100.00
65800;BME280;52544;48.116;11.660;2022-11-15T01:18:39;95555.31;;;3.11;100.00
65800;BME280;52544;48.116;11.660;2022-11-15T01:21:07;95556.50;;;3.06;100.00
65800;BME280;52544;48.116;11.660;2022-11-15T01:23:33;95548.28;;;2.97;100.00
65800;BME280;52544;48.116;11.660;2022-11-15T01:26:00;95547.22;;;3.00;100.00
65800;BME280;52544;48.116;11.660;2022-11-15T01:28:25;95543.25;;;2.93;100.00
65800;BME280;52544;48.116;11.660;2022-11-15T01:30:57;95539.06;;;2.90;100.00
65800;BME280;52544;48.116;11.660;2022-11-15T01:33:23;95529.72;;;2.86;100.00
65800;BME280;52544;48.116;11.660;2022-11-15T01:35:48;95536.47;;;2.90;100.00
65800;BME280;52544;48.116;11.660;2022-11-15T01:38:13;95532.22;;;2.88;100.00
65800;BME280;52544;48.116;11.660;2022-11-15T01:40:39;95531.50;;;2.86;100.00
65800;BME280;52544;48.116;11.660;2022-11-15T01:45:56;95519.44;;;2.36;100.00
65800;BME280;52544;48.116;11.660;2022-11-15T01:48:29;95514.03;;;2.39;100.00
65800;BME280;52544;48.116;11.660;2022-11-15T01:50:57;95507.13;;;2.54;100.00
65800;BME280;52544;48.116;11.660;2022-11-15T01:53:24;95504.44;;;2.55;100.00
65800;BME280;52544;48.116;11.660;2022-11-15T01:55:51;95504.25;;;2.58;100.00
65800;BME280;52544;48.116;11.660;2022-11-15T01:58:17;95503.59;;;2.70;100.00
65800;BME280;52544;48.116;11.660;2022-11-15T02:00:42;95493.81;;;2.58;100.00
65800;BME280;52544;48.116;11.660;2022-11-15T02:03:08;95492.44;;;2.67;100.00
65800;BME280;52544;48.116;11.660;2022-11-15T02:05:34;95495.84;;;2.69;100.00
65800;BME280;52544;48.116;11.660;2022-11-15T02:08:01;95499.81;;;2.60;100.00
65800;BME280;52544;48.116;11.660;2022-11-15T02:10:27;95485.06;;;2.59;100.00
65800;BME280;52544;48.116;11.660;2022-11-15T02:12:53;95487.50;;;2.62;100.00
65800;BME280;52544;48.116;11.660;2022-11-15T02:15:20;95495.16;;;2.65;100.00
65800;BME280;52544;48.116;11.660;2022-11-15T02:17:55;95500.72;;;2.43;100.00
65800;BME280;52544;48.116;11.660;2022-11-15T02:23:37;95481.50;;;2.60;100.00
65800;BME280;52544;48.116;11.660;2022-11-15T02:26:31;95480.16;;;2.53;100.00
65800;BME280;52544;48.116;11.660;2022-11-15T02:29:10;95468.63;;;2.41;100.00
65800;BME280;52544;48.116;11.660;2022-11-15T02:31:45;95467.94;;;2.54;100.00
65800;BME280;52544;48.116;11.660;2022-11-15T02:37:21;95462.81;;;2.52;100.00
65800;BME280;52544;48.116;11.660;2022-11-15T02:40:34;95463.38;;;2.41;100.00
65800;BME280;52544;48.116;11.660;2022-11-15T02:42:45;95453.38;;;2.34;100.00
65800;BME280;52544;48.116;11.660;2022-11-15T02:45:36;95465.31;;;2.38;100.00
65800;BME280;52544;48.116;11.660;2022-11-15T02:48:05;95464.56;;;2.36;100.00
65800;BME280;52544;48.116;11.660;2022-11-15T02:50:32;95470.72;;;2.19;100.00
65800;BME280;52544;48.116;11.660;2022-11-15T02:52:59;95470.09;;;1.98;100.00
65800;BME280;52544;48.116;11.660;2022-11-15T02:55:33;95464.78;;;1.99;100.00
65800;BME280;52544;48.116;11.660;2022-11-15T03:06:30;95469.78;;;2.04;100.00
65800;BME280;52544;48.116;11.660;2022-11-15T03:09:35;95467.25;;;2.03;100.00
65800;BME280;52544;48.116;11.660;2022-11-15T03:12:15;95463.22;;;1.97;100.00
65800;BME280;52544;48.116;11.660;2022-11-15T03:14:55;95458.91;;;1.96;100.00
65800;BME280;52544;48.116;11.660;2022-11-15T03:17:26;95457.91;;;2.14;100.00
65800;BME280;52544;48.116;11.660;2022-11-15T03:19:59;95452.38;;;2.05;100.00
65800;BME280;52544;48.116;11.660;2022-11-15T03:22:28;95453.44;;;2.00;100.00
65800;BME280;52544;48.116;11.660;2022-11-15T03:24:59;95457.16;;;2.12;100.00
65800;BME280;52544;48.116;11.660;2022-11-15T03:27:30;95458.25;;;2.08;100.00
65800;BME280;52544;48.116;11.660;2022-11-15T03:30:00;95450.06;;;1.83;100.00
65800;BME280;52544;48.116;11.660;2022-11-15T03:32:29;95451.34;;;1.91;100.00
65800;BME280;52544;48.116;11.660;2022-11-15T03:34:58;95448.19;;;1.85;100.00
65800;BME280;52544;48.116;11.660;2022-11-15T03:39:58;95442.41;;;1.95;100.00
65800;BME280;52544;48.116;11.660;2022-11-15T03:47:29;95434.59;;;1.95;100.00
65800;BME280;52544;48.116;11.660;2022-11-15T03:50:07;95428.34;;;1.98;100.00
65800;BME280;52544;48.116;11.660;2022-11-15T03:52:34;95429.88;;;2.02;100.00
65800;BME280;52544;48.116;11.660;2022-11-15T03:55:01;95432.72;;;1.97;100.00
65800;BME280;52544;48.116;11.660;2022-11-15T03:57:28;95427.66;;;1.79;100.00
65800;BME280;52544;48.116;11.660;2022-11-15T03:59:53;95431.38;;;1.74;100.00
65800;BME280;52544;48.116;11.660;2022-11-15T04:02:18;95430.28;;;1.61;100.00
65800;BME280;52544;48.116;11.660;2022-11-15T04:04:44;95428.91;;;1.71;100.00
65800;BME280;52544;48.116;11.660;2022-11-15T04:07:09;95425.81;;;1.81;100.00
65800;BME280;52544;48.116;11.660;2022-11-15T04:09:35;95420.00;;;1.75;100.00
65800;BME280;52544;48.116;11.660;2022-11-15T04:12:20;95421.56;;;1.62;100.00
65800;BME280;52544;48.116;11.660;2022-11-15T04:14:58;95422.25;;;1.66;100.00
65800;BME280;52544;48.116;11.660;2022-11-15T04:17:49;95410.94;;;1.65;100.00
65800;BME280;52544;48.116;11.660;2022-11-15T04:20:18;95408.53;;;1.62;100.00
65800;BME280;52544;48.116;11.660;2022-11-15T04:23:05;95404.22;;;1.61;100.00
65800;BME280;52544;48.116;11.660;2022-11-15T04:25:51;95393.38;;;1.69;100.00
65800;BME280;52544;48.116;11.660;2022-11-15T04:28:17;95389.97;;;1.51;100.00
65800;BME280;52544;48.116;11.660;2022-11-15T04:30:43;95394.72;;;1.60;100.00
65800;BME280;52544;48.116;11.660;2022-11-15T04:33:08;95386.78;;;1.46;100.00
65800;BME280;52544;48.116;11.660;2022-11-15T04:35:34;95385.09;;;1.45;100.00
65800;BME280;52544;48.116;11.660;2022-11-15T04:38:00;95369.72;;;1.56;100.00
65800;BME280;52544;48.116;11.660;2022-11-15T04:40:26;95375.47;;;1.63;100.00
65800;BME280;52544;48.116;11.660;2022-11-15T04:42:51;95372.69;;;1.66;100.00
65800;BME280;52544;48.116;11.660;2022-11-15T04:45:17;95379.06;;;1.60;100.00
65800;BME280;52544;48.116;11.660;2022-11-15T04:47:46;95376.66;;;1.40;100.00
65800;BME280;52544;48.116;11.660;2022-11-15T04:50:12;95380.19;;;1.39;100.00
65800;BME280;52544;48.116;11.660;2022-11-15T04:52:46;95378.66;;;1.35;100.00
65800;BME280;52544;48.116;11.660;2022-11-15T04:55:14;95384.75;;;1.18;100.00
65800;BME280;52544;48.116;11.660;2022-11-15T04:57:40;95384.69;;;1.19;100.00
65800;BME280;52544;48.116;11.660;2022-11-15T05:00:09;95389.91;;;1.19;100.00
65800;BME280;52544;48.116;11.660;2022-11-15T05:02:35;95391.84;;;1.32;100.00
65800;BME280;52544;48.116;11.660;2022-11-15T05:05:19;95389.63;;;1.41;100.00
65800;BME280;52544;48.116;11.660;2022-11-15T05:07:44;95385.94;;;1.45;100.00
65800;BME280;52544;48.116;11.660;2022-11-15T05:10:10;95386.00;;;1.44;100.00
65800;BME280;52544;48.116;11.660;2022-11-15T05:12:35;95376.50;;;1.43;100.00
65800;BME280;52544;48.116;11.660;2022-11-15T05:15:01;95381.81;;;1.41;100.00
65800;BME280;52544;48.116;11.660;2022-11-15T05:17:27;95372.72;;;1.48;100.00
65800;BME280;52544;48.116;11.660;2022-11-15T05:19:52;95375.56;;;1.44;100.00
65800;BME280;52544;48.116;11.660;2022-11-15T05:22:18;95367.16;;;1.39;100.00
65800;BME280;52544;48.116;11.660;2022-11-15T05:24:44;95369.28;;;1.48;100.00
65800;BME280;52544;48.116;11.660;2022-11-15T05:27:09;95365.38;;;1.39;100.00
65800;BME280;52544;48.116;11.660;2022-11-15T05:29:35;95359.47;;;1.53;100.00
65800;BME280;52544;48.116;11.660;2022-11-15T05:32:00;95357.41;;;1.42;100.00
65800;BME280;52544;48.116;11.660;2022-11-15T05:34:26;95360.38;;;1.52;100.00
65800;BME280;52544;48.116;11.660;2022-11-15T05:36:52;95358.00;;;1.47;100.00
65800;BME280;52544;48.116;11.660;2022-11-15T05:39:17;95354.16;;;1.55;100.00
65800;BME280;52544;48.116;11.660;2022-11-15T05:41:46;95351.28;;;1.59;100.00
65800;BME280;52544;48.116;11.660;2022-11-15T05:44:15;95349.44;;;1.61;100.00
65800;BME280;52544;48.116;11.660;2022-11-15T05:46:42;95353.75;;;1.62;100.00
65800;BME280;52544;48.116;11.660;2022-11-15T05:49:12;95342.47;;;1.62;100.00
65800;BME280;52544;48.116;11.660;2022-11-15T05:51:39;95332.03;;;1.62;100.00
65800;BME280;52544;48.116;11.660;2022-11-15T05:54:07;95327.03;;;1.57;100.00
65800;BME280;52544;48.116;11.660;2022-11-15T05:56:32;95323.69;;;1.55;100.00
65800;BME280;52544;48.116;11.660;2022-11-15T05:58:58;95329.06;;;1.36;100.00
65800;BME280;52544;48.116;11.660;2022-11-15T06:01:25;95336.50;;;1.27;100.00
65800;BME280;52544;48.116;11.660;2022-11-15T06:03:51;95341.63;;;1.12;100.00
65800;BME280;52544;48.116;11.660;2022-11-15T06:06:17;95345.16;;;1.11;100.00
65800;BME280;52544;48.116;11.660;2022-11-15T06:08:42;95348.50;;;1.13;100.00
65800;BME280;52544;48.116;11.660;2022-11-15T06:11:07;95334.69;;;1.29;100.00
65800;BME280;52544;48.116;11.660;2022-11-15T06:13:33;95339.50;;;1.36;100.00
65800;BME280;52544;48.116;11.660;2022-11-15T06:15:59;95334.19;;;1.38;100.00
65800;BME280;52544;48.116;11.660;2022-11-15T06:18:25;95330.75;;;1.37;100.00
65800;BME280;52544;48.116;11.660;2022-11-15T06:20:51;95334.94;;;1.40;100.00
65800;BME280;52544;48.116;11.660;2022-11-15T06:23:16;95333.34;;;1.37;100.00
65800;BME280;52544;48.116;11.660;2022-11-15T06:25:42;95327.28;;;1.37;100.00
65800;BME280;52544;48.116;11.660;2022-11-15T06:28:07;95332.16;;;1.43;100.00
65800;BME280;52544;48.116;11.660;2022-11-15T06:30:33;95332.03;;;1.46;100.00
65800;BME280;52544;48.116;11.660;2022-11-15T06:33:04;95327.59;;;1.31;100.00
65800;BME280;52544;48.116;11.660;2022-11-15T06:35:32;95337.28;;;1.29;100.00
65800;BME280;52544;48.116;11.660;2022-11-15T06:38:09;95340.34;;;1.37;100.00
65800;BME280;52544;48.116;11.660;2022-11-15T06:40:36;95334.78;;;1.43;100.00
65800;BME280;52544;48.116;11.660;2022-11-15T06:43:03;95339.69;;;1.49;100.00
65800;BME280;52544;48.116;11.660;2022-11-15T06:45:29;95342.34;;;1.47;100.00
65800;BME280;52544;48.116;11.660;2022-11-15T06:47:54;95336.06;;;1.52;100.00
65800;BME280;52544;48.116;11.660;2022-11-15T06:50:20;95343.03;;;1.51;100.00
65800;BME280;52544;48.116;11.660;2022-11-15T06:52:46;95342.22;;;1.66;100.00
65800;BME280;52544;48.116;11.660;2022-11-15T06:55:11;95341.38;;;1.82;100.00
65800;BME280;52544;48.116;11.660;2022-11-15T06:57:37;95343.66;;;1.88;100.00
65800;BME280;52544;48.116;11.660;2022-11-15T07:00:04;95333.97;;;1.90;100.00
65800;BME280;52544;48.116;11.660;2022-11-15T07:02:30;95341.03;;;2.04;100.00
65800;BME280;52544;48.116;11.660;2022-11-15T07:04:56;95328.38;;;2.12;100.00
65800;BME280;52544;48.116;11.660;2022-11-15T07:07:21;95331.59;;;2.17;100.00
65800;BME280;52544;48.116;11.660;2022-11-15T07:09:46;95338.00;;;2.11;100.00
65800;BME280;52544;48.116;11.660;2022-11-15T07:12:12;95335.88;;;2.18;100.00
65800;BME280;52544;48.116;11.660;2022-11-15T07:14:38;95336.38;;;2.24;100.00
65800;BME280;52544;48.116;11.660;2022-11-15T07:17:04;95332.50;;;2.32;100.00
65800;BME280;52544;48.116;11.660;2022-11-15T07:19:30;95333.44;;;2.31;100.00
65800;BME280;52544;48.116;11.660;2022-11-15T07:21:55;95336.25;;;2.42;100.00
65800;BME280;52544;48.116;11.660;2022-11-15T07:24:21;95329.34;;;2.41;100.00
65800;BME280;52544;48.116;11.660;2022-11-15T07:26:46;95333.03;;;2.53;100.00
65800;BME280;52544;48.116;11.660;2022-11-15T07:29:11;95324.94;;;2.57;100.00
65800;BME280;52544;48.116;11.660;2022-11-15T07:31:37;95327.78;;;2.68;100.00
65800;BME280;52544;48.116;11.660;2022-11-15T07:34:03;95331.63;;;2.77;100.00
65800;BME280;52544;48.116;11.660;2022-11-15T07:36:28;95333.41;;;2.91;100.00
65800;BME280;52544;48.116;11.660;2022-11-15T07:38:53;95342.03;;;3.07;100.00
65800;BME280;52544;48.116;11.660;2022-11-15T07:41:19;95338.47;;;3.22;100.00
65800;BME280;52544;48.116;11.660;2022-11-15T07:43:44;95339.06;;;3.42;100.00
65800;BME280;52544;48.116;11.660;2022-11-15T07:46:10;95331.56;;;3.64;100.00
65800;BME280;52544;48.116;11.660;2022-11-15T07:48:36;95326.75;;;3.85;100.00
65800;BME280;52544;48.116;11.660;2022-11-15T07:51:02;95330.75;;;4.05;100.00
65800;BME280;52544;48.116;11.660;2022-11-15T07:53:28;95329.84;;;4.19;100.00
65800;BME280;52544;48.116;11.660;2022-11-15T07:55:53;95331.38;;;4.36;100.00
65800;BME280;52544;48.116;11.660;2022-11-15T07:58:19;95324.94;;;4.54;100.00
65800;BME280;52544;48.116;11.660;2022-11-15T08:00:44;95323.31;;;4.79;100.00
65800;BME280;52544;48.116;11.660;2022-11-15T08:03:12;95316.63;;;5.00;97.10
65800;BME280;52544;48.116;11.660;2022-11-15T08:05:39;95311.19;;;5.16;96.86
65800;BME280;52544;48.116;11.660;2022-11-15T08:08:06;95312.84;;;5.30;95.45
65800;BME280;52544;48.116;11.660;2022-11-15T08:10:32;95312.53;;;5.47;93.65
65800;BME280;52544;48.116;11.660;2022-11-15T08:15:24;95303.44;;;5.76;92.97
65800;BME280;52544;48.116;11.660;2022-11-15T08:17:57;95304.59;;;5.98;91.13
65800;BME280;52544;48.116;11.660;2022-11-15T08:20:23;95298.25;;;6.13;88.34
65800;BME280;52544;48.116;11.660;2022-11-15T08:22:49;95287.63;;;6.39;88.83
65800;BME280;52544;48.116;11.660;2022-11-15T08:25:15;95280.50;;;6.52;86.58
65800;BME280;52544;48.116;11.660;2022-11-15T08:27:40;95276.75;;;6.67;86.39
65800;BME280;52544;48.116;11.660;2022-11-15T08:30:06;95274.78;;;6.93;86.05
65800;BME280;52544;48.116;11.660;2022-11-15T08:32:32;95265.34;;;7.13;84.63
65800;BME280;52544;48.116;11.660;2022-11-15T08:34:57;95257.72;;;7.33;83.76
65800;BME280;52544;48.116;11.660;2022-11-15T08:37:22;95241.31;;;7.51;83.56
65800;BME280;52544;48.116;11.660;2022-11-15T08:39:48;95232.06;;;7.68;83.39
65800;BME280;52544;48.116;11.660;2022-11-15T08:42:13;95230.13;;;7.93;82.90
65800;BME280;52544;48.116;11.660;2022-11-15T08:44:40;95229.47;;;8.12;80.36
65800;BME280;52544;48.116;11.660;2022-11-15T08:47:06;95224.75;;;8.26;78.91
65800;BME280;52544;48.116;11.660;2022-11-15T08:49:31;95231.50;;;8.51;78.38
65800;BME280;52544;48.116;11.660;2022-11-15T08:51:56;95227.66;;;8.76;77.03
65800;BME280;52544;48.116;11.660;2022-11-15T08:54:22;95236.81;;;8.93;74.66
65800;BME280;52544;48.116;11.660;2022-11-15T08:56:47;95220.22;;;9.12;75.25
65800;BME280;52544;48.116;11.660;2022-11-15T08:59:13;95225.19;;;9.26;74.50
65800;BME280;52544;48.116;11.660;2022-11-15T09:01:38;95229.31;;;9.50;73.02
65800;BME280;52544;48.116;11.660;2022-11-15T09:04:03;95229.91;;;9.63;73.82
65800;BME280;52544;48.116;11.660;2022-11-15T09:06:29;95222.88;;;9.83;73.01
65800;BME280;52544;48.116;11.660;2022-11-15T09:08:56;95225.59;;;10.12;67.91
65800;BME280;52544;48.116;11.660;2022-11-15T09:11:21;95224.75;;;10.21;66.58
65800;BME280;52544;48.116;11.660;2022-11-15T09:13:48;95233.75;;;10.49;65.99
65800;BME280;52544;48.116;11.660;2022-11-15T09:16:14;95238.75;;;10.62;66.37
65800;BME280;52544;48.116;11.660;2022-11-15T09:18:41;95230.25;;;10.88;63.20
65800;BME280;52544;48.116;11.660;2022-11-15T09:21:07;95215.41;;;11.14;61.45
65800;BME280;52544;48.116;11.660;2022-11-15T09:23:33;95219.44;;;11.18;60.19
65800;BME280;52544;48.116;11.660;2022-11-15T09:26:02;95219.69;;;11.35;61.04
65800;BME280;52544;48.116;11.660;2022-11-15T09:28:28;95219.09;;;11.41;59.22
65800;BME280;52544;48.116;11.660;2022-11-15T09:31:01;95216.06;;;11.63;59.56
65800;BME280;52544;48.116;11.660;2022-11-15T09:33:27;95210.13;;;11.79;59.25
65800;BME280;52544;48.116;11.660;2022-11-15T09:35:53;95201.50;;;12.05;57.60
65800;BME280;52544;48.116;11.660;2022-11-15T09:38:19;95197.03;;;12.05;57.11
65800;BME280;52544;48.116;11.660;2022-11-15T09:40:49;95196.84;;;12.16;58.47
65800;BME280;52544;48.116;11.660;2022-11-15T09:43:31;95186.75;;;12.38;58.28
65800;BME280;52544;48.116;11.660;2022-11-15T09:48:59;95180.31;;;12.58;54.42
65800;BME280;52544;48.116;11.660;2022-11-15T09:51:30;95179.69;;;12.64;54.67
65800;BME280;52544;48.116;11.660;2022-11-15T09:54:09;95172.16;;;12.77;54.99
65800;BME280;52544;48.116;11.660;2022-11-15T09:56:41;95168.13;;;12.91;53.24
65800;BME280;52544;48.116;11.660;2022-11-15T09:59:22;95159.31;;;12.91;53.18
65800;BME280;52544;48.116;11.660;2022-11-15T10:04:44;95141.78;;;13.24;52.81
65800;BME280;52544;48.116;11.660;2022-11-15T10:07:19;95133.25;;;13.46;51.67
65800;BME280;52544;48.116;11.660;2022-11-15T10:09:55;95139.84;;;13.68;50.83
65800;BME280;52544;48.116;11.660;2022-11-15T10:12:25;95143.56;;;13.92;49.87
65800;BME280;52544;48.116;11.660;2022-11-15T10:15:00;95147.69;;;13.86;49.21
65800;BME280;52544;48.116;11.660;2022-11-15T10:20:27;95136.31;;;14.10;49.93
65800;BME280;52544;48.116;11.660;2022-11-15T10:22:56;95123.00;;;14.26;49.17
65800;BME280;52544;48.116;11.660;2022-11-15T10:25:28;95121.00;;;14.20;48.87
65800;BME280;52544;48.116;11.660;2022-11-15T10:28:09;95121.34;;;14.25;48.32
65800;BME280;52544;48.116;11.660;2022-11-15T10:30:47;95113.56;;;14.40;48.24
65800;BME280;52544;48.116;11.660;2022-11-15T10:33:33;95098.44;;;14.57;48.05
65800;BME280;52544;48.116;11.660;2022-11-15T10:38:54;95103.22;;;14.86;48.32
65800;BME280;52544;48.116;11.660;2022-11-15T10:41:41;95095.38;;;14.93;47.51
65800;BME280;52544;48.116;11.660;2022-11-15T10:46:34;95091.22;;;14.82;46.68
65800;BME280;52544;48.116;11.660;2022-11-15T10:49:17;95091.75;;;14.45;46.34
65800;BME280;52544;48.116;11.660;2022-11-15T10:51:49;95081.59;;;14.40;47.29
65800;BME280;52544;48.116;11.660;2022-11-15T10:54:44;95077.78;;;14.51;47.71
65800;BME280;52544;48.116;11.660;2022-11-15T10:57:20;95064.81;;;14.56;46.98
65800;BME280;52544;48.116;11.660;2022-11-15T10:59:49;95073.16;;;14.61;46.60
65800;BME280;52544;48.116;11.660;2022-11-15T11:02:34;95067.78;;;14.20;47.06
65800;BME280;52544;48.116;11.660;2022-11-15T11:05:02;95059.94;;;14.27;47.31
65800;BME280;52544;48.116;11.660;2022-11-15T11:07:31;95061.47;;;14.38;48.20
65800;BME280;52544;48.116;11.660;2022-11-15T11:10:18;95050.16;;;14.52;48.03
65800;BME280;52544;48.116;11.660;2022-11-15T11:12:43;95054.50;;;14.53;47.36
65800;BME280;52544;48.116;11.660;2022-11-15T11:15:12;95040.81;;;14.40;49.25
65800;BME280;52544;48.116;11.660;2022-11-15T11:20:37;95036.50;;;14.39;49.03
65800;BME280;52544;48.116;11.660;2022-11-15T11:37:10;95014.69;;;14.76;48.81
65800;BME280;52544;48.116;11.660;2022-11-15T11:42:54;95011.53;;;14.48;47.68
65800;BME280;52544;48.116;11.660;2022-11-15T11:48:23;95002.72;;;14.31;49.11
65800;BME280;52544;48.116;11.660;2022-11-15T11:50:58;94996.94;;;14.36;49.16
65800;BME280;52544;48.116;11.660;2022-11-15T11:53:42;94997.56;;;14.38;47.50
65800;BME280;52544;48.116;11.660;2022-11-15T11:56:25;94991.41;;;14.45;46.49
65800;BME280;52544;48.116;11.660;2022-11-15T11:58:54;94974.16;;;14.49;46.49
65800;BME280;52544;48.116;11.660;2022-11-15T12:01:30;94969.63;;;14.58;46.71
65800;BME280;52544;48.116;11.660;2022-11-15T12:04:03;94968.13;;;14.56;45.71
65800;BME280;52544;48.116;11.660;2022-11-15T12:06:37;94980.25;;;14.66;45.70
65800;BME280;52544;48.116;11.660;2022-11-15T12:12:02;94976.09;;;14.64;44.38
65800;BME280;52544;48.116;11.660;2022-11-15T12:14:42;94963.63;;;14.56;45.00
65800;BME280;52544;48.116;11.660;2022-11-15T12:17:11;94964.94;;;14.60;44.77
65800;BME280;52544;48.116;11.660;2022-11-15T12:19:37;94973.25;;;14.65;45.17
65800;BME280;52544;48.116;11.660;2022-11-15T12:24:40;94960.59;;;14.75;45.04
65800;BME280;52544;48.116;11.660;2022-11-15T12:27:15;94959.56;;;14.77;45.92
65800;BME280;52544;48.116;11.660;2022-11-15T12:29:47;94956.59;;;14.71;45.83
65800;BME280;52544;48.116;11.660;2022-11-15T12:32:33;94950.94;;;14.74;46.13
65800;BME280;52544;48.116;11.660;2022-11-15T12:35:00;94949.41;;;14.80;46.14
65800;BME280;52544;48.116;11.660;2022-11-15T12:42:42;94948.72;;;15.25;45.27
65800;BME280;52544;48.116;11.660;2022-11-15T12:45:33;94942.06;;;15.21;45.22
65800;BME280;52544;48.116;11.660;2022-11-15T12:58:57;94929.88;;;15.50;44.92
65800;BME280;52544;48.116;11.660;2022-11-15T13:04:27;94925.47;;;15.65;45.49
65800;BME280;52544;48.116;11.660;2022-11-15T13:07:02;94918.50;;;15.64;45.04
65800;BME280;52544;48.116;11.660;2022-11-15T13:12:03;94924.75;;;15.71;44.12
65800;BME280;52544;48.116;11.660;2022-11-15T13:19:46;94925.72;;;16.16;43.82
65800;BME280;52544;48.116;11.660;2022-11-15T13:22:12;94916.34;;;16.20;43.59
65800;BME280;52544;48.116;11.660;2022-11-15T13:24:57;94915.25;;;16.30;44.28
65800;BME280;52544;48.116;11.660;2022-11-15T13:27:22;94916.66;;;16.40;44.33
65800;BME280;52544;48.116;11.660;2022-11-15T13:29:48;94912.41;;;16.46;44.80
65800;BME280;52544;48.116;11.660;2022-11-15T13:32:15;94913.25;;;16.46;44.59
65800;BME280;52544;48.116;11.660;2022-11-15T13:34:45;94898.63;;;16.57;44.08
65800;BME280;52544;48.116;11.660;2022-11-15T13:37:28;94904.06;;;16.49;43.44
65800;BME280;52544;48.116;11.660;2022-11-15T13:39:55;94900.34;;;16.50;43.18
65800;BME280;52544;48.116;11.660;2022-11-15T13:42:35;94896.13;;;16.70;43.04
65800;BME280;52544;48.116;11.660;2022-11-15T13:45:03;94897.16;;;16.84;42.90
65800;BME280;52544;48.116;11.660;2022-11-15T13:47:29;94899.00;;;17.20;42.11
65800;BME280;52544;48.116;11.660;2022-11-15T13:49:57;94900.50;;;17.44;41.49
65800;BME280;52544;48.116;11.660;2022-11-15T13:52:27;94893.06;;;17.61;41.06
65800;BME280;52544;48.116;11.660;2022-11-15T13:55:03;94900.69;;;17.79;41.36
65800;BME280;52544;48.116;11.660;2022-11-15T13:57:56;94890.66;;;17.66;40.73
65800;BME280;52544;48.116;11.660;2022-11-15T14:00:29;94891.41;;;17.02;42.73
65800;BME280;52544;48.116;11.660;2022-11-15T14:02:55;94882.13;;;16.54;43.70
65800;BME280;52544;48.116;11.660;2022-11-15T14:05:23;94890.19;;;16.31;44.10
65800;BME280;52544;48.116;11.660;2022-11-15T14:08:21;94883.44;;;15.90;44.59
65800;BME280;52544;48.116;11.660;2022-11-15T14:10:47;94888.59;;;15.46;45.95
65800;BME280;52544;48.116;11.660;2022-11-15T14:13:30;94893.00;;;15.39;46.42
65800;BME280;52544;48.116;11.660;2022-11-15T14:16:13;94902.41;;;15.27;48.30
65800;BME280;52544;48.116;11.660;2022-11-15T14:18:44;94903.19;;;15.04;47.88
65800;BME280;52544;48.116;11.660;2022-11-15T14:21:10;94907.63;;;14.81;50.68
65800;BME280;52544;48.116;11.660;2022-11-15T14:23:35;94908.78;;;14.78;50.64
65800;BME280;52544;48.116;11.660;2022-11-15T14:26:01;94904.72;;;14.59;50.27
65800;BME280;52544;48.116;11.660;2022-11-15T14:30:54;94902.97;;;14.19;53.44
65800;BME280;52544;48.116;11.660;2022-11-15T14:33:24;94908.16;;;13.96;54.72
65800;BME280;52544;48.116;11.660;2022-11-15T14:35:53;94901.88;;;13.56;57.53
65800;BME280;52544;48.116;11.660;2022-11-15T14:38:20;94905.84;;;13.52;58.48
65800;BME280;52544;48.116;11.660;2022-11-15T14:40:45;94908.19;;;13.47;57.05